createdAt,value
2023-04-07T00:01:07.977Z,100642.50
2023-04-07T00:03:41.613Z,100650.31
2023-04-07T00:06:14.176Z,100643.39
2023-04-07T00:08:46.078Z,100646.03
2023-04-07T00:11:18.217Z,100644.34
2023-04-07T00:13:50.276Z,100645.30
2023-04-07T00:16:23.136Z,100648.83
2023-04-07T00:18:55.261Z,100646.27
2023-04-07T00:21:27.313Z,100647.16
2023-04-07T00:23:59.400Z,100645.44
2023-04-07T00:26:33.119Z,100651.57
2023-04-07T00:29:05.130Z,100642.94
2023-04-07T00:31:37.155Z,100649.05
2023-04-07T00:34:09.266Z,100640.46
2023-04-07T00:36:41.293Z,100643.97
2023-04-07T00:39:13.325Z,100643.16
2023-04-07T00:41:45.853Z,100638.89
2023-04-07T00:44:17.984Z,100642.41
2023-04-07T00:46:50.186Z,100649.38
2023-04-07T00:49:22.314Z,100645.97
2023-04-07T00:51:56.934Z,100643.39
2023-04-07T00:54:30.602Z,100651.22
2023-04-07T00:57:02.844Z,100645.21
2023-04-07T00:59:35.181Z,100653.92
2023-04-07T01:02:19.202Z,100652.23
2023-04-07T01:04:54.434Z,100650.53
2023-04-07T01:07:29.546Z,100652.28
2023-04-07T01:10:08.098Z,100651.47
2023-04-07T01:12:48.151Z,100646.30
2023-04-07T01:15:23.846Z,100645.50
2023-04-07T01:18:08.957Z,100657.67
2023-04-07T01:20:43.374Z,100656.83
2023-04-07T01:23:18.554Z,100657.74
2023-04-07T01:25:56.260Z,100663.85
2023-04-07T01:28:37.008Z,100660.45
2023-04-07T01:31:11.681Z,100659.66
2023-04-07T01:33:46.256Z,100664.86
2023-04-07T01:36:19.461Z,100673.55
2023-04-07T01:38:55.406Z,100663.19
2023-04-07T01:41:28.410Z,100657.17
2023-04-07T01:44:02.278Z,100653.72
2023-04-07T01:46:35.121Z,100665.89
2023-04-07T01:49:07.997Z,100666.78
2023-04-07T01:51:41.316Z,100659.89
2023-04-07T01:54:13.460Z,100658.20
2023-04-07T01:56:46.252Z,100654.75
2023-04-07T01:59:18.602Z,100659.95
2023-04-07T02:01:51.202Z,100666.91
2023-04-07T02:04:37.344Z,100661.73
2023-04-07T02:07:12.858Z,100665.23
2023-04-07T02:09:48.414Z,100660.94
2023-04-07T02:12:21.412Z,100673.09
2023-04-07T02:14:57.012Z,100667.05
2023-04-07T02:17:30.328Z,100667.95
2023-04-07T02:20:03.557Z,100666.25
2023-04-07T02:22:36.009Z,100667.14
2023-04-07T02:25:25.706Z,100671.52
2023-04-07T02:28:00.496Z,100662.05
2023-04-07T02:30:32.486Z,100674.16
2023-04-07T02:33:04.630Z,100672.45
2023-04-07T02:35:36.752Z,100671.63
2023-04-07T02:38:08.856Z,100664.73
2023-04-07T02:40:41.136Z,100671.63
2023-04-07T02:43:13.429Z,100664.73
2023-04-07T02:45:45.942Z,100666.45
2023-04-07T02:48:18.298Z,100668.16
2023-04-07T02:50:50.639Z,100669.91
2023-04-07T02:53:22.677Z,100671.63
2023-04-07T02:55:54.687Z,100670.75
2023-04-07T02:58:26.850Z,100675.05
2023-04-07T03:00:59.109Z,100673.33
2023-04-07T03:03:33.080Z,100681.97
2023-04-07T03:06:12.759Z,100677.62
2023-04-07T03:08:46.590Z,100678.44
2023-04-07T03:11:18.695Z,100689.67
2023-04-07T03:13:52.538Z,100686.19
2023-04-07T03:16:24.857Z,100692.20
2023-04-07T03:18:58.643Z,100689.58
2023-04-07T03:21:32.051Z,100692.16
2023-04-07T03:24:04.586Z,100693.84
2023-04-07T03:26:37.552Z,100692.06
2023-04-07T03:29:10.313Z,100688.55
2023-04-07T03:31:42.408Z,100697.02
2023-04-07T03:34:15.565Z,100690.14
2023-04-07T03:36:47.899Z,100696.12
2023-04-07T03:39:20.495Z,100698.63
2023-04-07T03:41:54.207Z,100705.48
2023-04-07T03:44:27.099Z,100702.81
2023-04-07T03:46:59.914Z,100707.11
2023-04-07T03:49:32.642Z,100707.93
2023-04-07T03:52:06.143Z,100710.43
2023-04-07T03:54:38.069Z,100711.97
2023-04-07T03:57:10.982Z,100698.19
2023-04-07T03:59:44.987Z,100713.69
2023-04-07T04:02:17.207Z,100704.97
2023-04-07T04:04:50.321Z,100704.02
2023-04-07T04:07:23.296Z,100705.64
2023-04-07T04:09:57.326Z,100702.09
2023-04-07T04:12:29.550Z,100705.47
2023-04-07T04:15:06.801Z,100714.89
2023-04-07T04:17:39.369Z,100714.78
2023-04-07T04:20:13.169Z,100708.59
2023-04-07T04:22:46.831Z,100710.17
2023-04-07T04:25:19.369Z,100720.41
2023-04-07T04:27:53.628Z,100718.58
2023-04-07T04:30:27.662Z,100725.39
2023-04-07T04:33:02.221Z,100720.03
2023-04-07T04:35:39.674Z,100724.27
2023-04-07T04:38:12.708Z,100724.13
2023-04-07T04:40:46.511Z,100731.55
2023-04-07T04:43:19.813Z,100727.30
2023-04-07T04:45:52.320Z,100727.21
2023-04-07T04:48:26.085Z,100725.41
2023-04-07T04:50:58.288Z,100722.71
2023-04-07T04:53:30.970Z,100726.88
2023-04-07T04:56:05.882Z,100732.80
2023-04-07T04:58:42.426Z,100731.79
2023-04-07T05:01:16.055Z,100741.22
2023-04-07T05:03:50.160Z,100739.33
2023-04-07T05:06:23.662Z,100733.09
2023-04-07T05:08:56.455Z,100735.23
2023-04-07T05:11:30.521Z,100730.97
2023-04-07T05:14:02.567Z,100729.02
2023-04-07T05:16:34.987Z,100730.55
2023-04-07T05:19:08.443Z,100733.85
2023-04-07T05:21:41.072Z,100731.97
2023-04-07T05:24:14.724Z,100737.04
2023-04-07T05:26:48.499Z,100737.70
2023-04-07T05:29:21.123Z,100740.91
2023-04-07T05:31:53.406Z,100739.75
2023-04-07T05:34:26.998Z,100741.21
2023-04-07T05:37:00.127Z,100740.98
2023-04-07T05:39:33.188Z,100735.49
2023-04-07T05:42:06.713Z,100737.94
2023-04-07T05:44:40.765Z,100744.67
2023-04-07T05:47:12.864Z,100739.13
2023-04-07T05:49:48.815Z,100743.25
2023-04-07T05:52:21.201Z,100736.94
2023-04-07T05:54:55.537Z,100745.06
2023-04-07T05:57:30.185Z,100745.95
2023-04-07T06:00:02.569Z,100741.51
2023-04-07T06:02:35.998Z,100738.09
2023-04-07T06:05:10.149Z,100743.82
2023-04-07T06:07:43.221Z,100734.34
2023-04-07T06:10:16.243Z,100734.55
2023-04-07T06:12:49.367Z,100736.23
2023-04-07T06:15:21.286Z,100736.23
2023-04-07T06:17:53.403Z,100732.18
2023-04-07T06:20:27.329Z,100739.95
2023-04-07T06:22:59.918Z,100733.40
2023-04-07T06:25:32.082Z,100737.23
2023-04-07T06:28:06.935Z,100737.76
2023-04-07T06:30:39.044Z,100736.88
2023-04-07T06:33:12.695Z,100729.20
2023-04-07T06:35:45.087Z,100731.67
2023-04-07T06:38:17.918Z,100733.80
2023-04-07T06:40:50.180Z,100739.49
2023-04-07T06:43:22.691Z,100736.61
2023-04-07T06:46:02.693Z,100733.19
2023-04-07T06:48:34.931Z,100730.03
2023-04-07T06:51:07.179Z,100734.27
2023-04-07T06:53:39.724Z,100728.75
2023-04-07T06:56:12.849Z,100723.73
2023-04-07T06:58:44.914Z,100724.38
2023-04-07T07:01:17.570Z,100723.45
2023-04-07T07:03:50.548Z,100721.27
2023-04-07T07:06:23.331Z,100726.02
2023-04-07T07:08:55.915Z,100722.85
2023-04-07T07:11:28.123Z,100729.78
2023-04-07T07:14:00.598Z,100715.56
2023-04-07T07:16:32.741Z,100726.38
2023-04-07T07:19:04.972Z,100728.64
2023-04-07T07:21:37.678Z,100733.48
2023-04-07T07:24:10.388Z,100733.22
2023-04-07T07:26:44.499Z,100740.16
2023-04-07T07:29:16.555Z,100737.81
2023-04-07T07:31:48.686Z,100741.50
2023-04-07T07:34:21.601Z,100737.77
2023-04-07T07:36:54.171Z,100739.41
2023-04-07T07:39:26.098Z,100739.08
2023-04-07T07:41:58.299Z,100747.30
2023-04-07T07:44:32.521Z,100749.23
2023-04-07T07:47:05.026Z,100746.59
2023-04-07T07:49:37.785Z,100732.42
2023-04-07T07:52:11.062Z,100746.15
2023-04-07T07:54:43.625Z,100743.00
2023-04-07T07:57:16.314Z,100742.30
2023-04-07T07:59:49.022Z,100740.66
2023-04-07T08:02:21.594Z,100734.41
2023-04-07T08:04:53.897Z,100750.97
2023-04-07T08:07:26.080Z,100737.09
2023-04-07T08:09:58.207Z,100739.80
2023-04-07T08:12:30.280Z,100735.39
2023-04-07T08:15:02.976Z,100736.88
2023-04-07T08:17:35.125Z,100743.81
2023-04-07T08:20:08.609Z,100731.70
2023-04-07T08:22:40.718Z,100731.60
2023-04-07T08:25:13.098Z,100733.41
2023-04-07T08:27:46.780Z,100739.38
2023-04-07T08:30:20.707Z,100725.44
2023-04-07T08:32:53.420Z,100719.30
2023-04-07T08:35:25.622Z,100718.23
2023-04-07T08:37:57.831Z,100720.01
2023-04-07T08:40:29.986Z,100703.44
2023-04-07T08:43:05.163Z,100722.00
2023-04-07T08:45:42.687Z,100723.06
2023-04-07T08:48:23.529Z,100715.03
2023-04-07T08:50:56.279Z,100721.07
2023-04-07T08:53:31.556Z,100723.51
2023-04-07T08:56:03.749Z,100725.95
2023-04-07T08:58:38.753Z,100719.45
2023-04-07T09:01:11.685Z,100712.28
2023-04-07T09:03:46.834Z,100717.38
2023-04-07T09:06:19.337Z,100724.32
2023-04-07T09:08:51.763Z,100716.42
2023-04-07T09:11:24.055Z,100716.31
2023-04-07T09:13:57.142Z,100730.29
2023-04-07T09:16:32.360Z,100722.39
2023-04-07T09:19:04.687Z,100724.89
2023-04-07T09:21:53.574Z,100715.98
2023-04-07T09:24:28.173Z,100717.55
2023-04-07T09:27:20.402Z,100707.64
2023-04-07T09:29:54.060Z,100712.70
2023-04-07T09:32:39.546Z,100713.54
2023-04-07T09:35:13.020Z,100720.61
2023-04-07T09:37:45.640Z,100718.44
2023-04-07T09:40:20.759Z,100707.69
2023-04-07T09:42:52.790Z,100712.68
2023-04-07T09:48:05.828Z,100705.19
2023-04-07T09:50:41.576Z,100706.81
2023-04-07T09:53:14.499Z,100714.52
2023-04-07T09:55:47.262Z,100716.77
2023-04-07T09:58:20.655Z,100709.33
2023-04-07T10:00:54.082Z,100712.63
2023-04-07T10:03:26.364Z,100709.05
2023-04-07T10:05:58.804Z,100713.38
2023-04-07T10:08:34.568Z,100714.08
2023-04-07T10:11:08.267Z,100714.66
2023-04-07T10:13:42.147Z,100703.55
2023-04-07T10:16:14.321Z,100710.13
2023-04-07T10:18:47.458Z,100714.25
2023-04-07T10:21:19.889Z,100705.92
2023-04-07T10:24:03.459Z,100714.56
2023-04-07T10:26:40.023Z,100710.76
2023-04-07T10:29:15.473Z,100703.71
2023-04-07T10:31:48.057Z,100707.52
2023-04-07T10:34:22.967Z,100710.56
2023-04-07T10:37:14.729Z,100690.70
2023-04-07T10:39:48.906Z,100700.09
2023-04-07T10:42:41.903Z,100707.36
2023-04-07T10:45:14.372Z,100700.38
2023-04-07T10:48:04.730Z,100704.47
2023-04-07T10:50:37.646Z,100704.28
2023-04-07T10:53:12.885Z,100707.34
2023-04-07T10:55:46.491Z,100713.50
2023-04-07T10:58:26.100Z,100713.41
2023-04-07T11:01:13.108Z,100705.28
2023-04-07T11:03:57.189Z,100706.48
2023-04-07T11:06:29.804Z,100703.66
2023-04-07T11:09:02.041Z,100698.37
2023-04-07T11:11:39.252Z,100713.05
2023-04-07T11:14:11.831Z,100702.55
2023-04-07T11:16:45.992Z,100693.00
2023-04-07T11:19:18.516Z,100691.55
2023-04-07T11:21:51.076Z,100700.44
2023-04-07T11:24:37.800Z,100699.41
2023-04-07T11:27:16.957Z,100698.66
2023-04-07T11:29:49.375Z,100694.03
2023-04-07T11:32:28.892Z,100691.30
2023-04-07T11:35:01.731Z,100688.12
2023-04-07T11:37:34.183Z,100697.67
2023-04-07T11:40:07.126Z,100691.71
2023-04-07T11:42:40.784Z,100683.00
2023-04-07T11:45:20.824Z,100689.06
2023-04-07T11:47:53.408Z,100681.13
2023-04-07T11:50:43.974Z,100687.95
2023-04-07T11:53:17.581Z,100684.27
2023-04-07T11:55:49.906Z,100686.55
2023-04-07T11:58:22.039Z,100679.99
2023-04-07T12:00:58.472Z,100680.56
2023-04-07T12:03:30.802Z,100674.84
2023-04-07T12:06:07.781Z,100675.33
2023-04-07T12:08:44.920Z,100671.00
2023-04-07T12:11:17.159Z,100681.11
2023-04-07T12:13:49.763Z,100681.50
2023-04-07T12:16:23.407Z,100678.20
2023-04-07T12:18:55.624Z,100678.01
2023-04-07T12:21:27.767Z,100669.39
2023-04-07T12:23:59.818Z,100675.48
2023-04-07T12:26:32.032Z,100670.38
2023-04-07T12:29:07.195Z,100662.71
2023-04-07T12:31:39.914Z,100659.80
2023-04-07T12:34:12.624Z,100646.87
2023-04-07T12:36:45.238Z,100666.12
2023-04-07T12:39:17.648Z,100652.27
2023-04-07T12:41:51.746Z,100661.47
2023-04-07T12:44:24.265Z,100666.24
2023-04-07T12:46:56.382Z,100657.95
2023-04-07T12:49:29.240Z,100654.52
2023-04-07T12:52:02.141Z,100655.27
2023-04-07T12:54:34.523Z,100643.05
2023-04-07T12:57:06.591Z,100647.67
2023-04-07T12:59:39.111Z,100644.96
2023-04-07T13:02:14.037Z,100642.03
2023-04-07T13:04:47.083Z,100646.22
2023-04-07T13:07:20.478Z,100642.23
2023-04-07T13:09:52.760Z,100643.63
2023-04-07T13:12:25.990Z,100636.55
2023-04-07T13:15:00.649Z,100638.20
2023-04-07T13:17:35.599Z,100636.04
2023-04-07T13:20:08.256Z,100636.17
2023-04-07T13:22:49.279Z,100651.56
2023-04-07T13:25:14.634Z,100628.37
2023-04-07T13:27:46.840Z,100642.24
2023-04-07T13:30:22.692Z,100630.55
2023-04-07T13:32:54.370Z,100641.73
2023-04-07T13:35:26.674Z,100632.33
2023-04-07T13:37:59.049Z,100635.18
2023-04-07T13:40:31.318Z,100640.23
2023-04-07T13:43:03.419Z,100634.34
2023-04-07T13:45:36.583Z,100632.31
2023-04-07T13:48:09.521Z,100629.57
2023-04-07T13:50:41.757Z,100637.34
2023-04-07T13:53:13.959Z,100636.38
2023-04-07T13:55:46.514Z,100633.39
2023-04-07T13:58:19.221Z,100637.30
2023-04-07T14:00:51.631Z,100635.59
2023-04-07T14:03:24.470Z,100640.33
2023-04-07T14:05:58.339Z,100636.48
2023-04-07T14:08:30.722Z,100630.41
2023-04-07T14:11:03.649Z,100627.13
2023-04-07T14:13:36.519Z,100630.09
2023-04-07T14:16:09.450Z,100634.72
2023-04-07T14:18:42.555Z,100630.64
2023-04-07T14:21:15.409Z,100640.94
2023-04-07T14:23:48.050Z,100635.33
2023-04-07T14:26:21.560Z,100628.50
2023-04-07T14:28:54.159Z,100630.31
2023-04-07T14:31:26.479Z,100624.78
2023-04-07T14:33:58.849Z,100628.45
2023-04-07T14:36:32.979Z,100639.50
2023-04-07T14:39:04.921Z,100626.13
2023-04-07T14:41:37.492Z,100633.36
2023-04-07T14:44:09.567Z,100639.04
2023-04-07T14:46:42.718Z,100634.29
2023-04-07T14:49:16.519Z,100632.30
2023-04-07T14:51:48.871Z,100650.06
2023-04-07T14:54:21.734Z,100639.42
2023-04-07T14:56:54.075Z,100639.30
2023-04-07T14:59:26.644Z,100648.17
2023-04-07T15:02:00.493Z,100648.55
2023-04-07T15:04:33.287Z,100652.48
2023-04-07T15:07:06.144Z,100659.43
2023-04-07T15:09:39.079Z,100653.55
2023-04-07T15:12:11.483Z,100655.45
2023-04-07T15:14:46.293Z,100651.81
2023-04-07T15:17:18.980Z,100658.02
2023-04-07T15:19:51.455Z,100670.87
2023-04-07T15:22:23.909Z,100668.53
2023-04-07T15:24:56.174Z,100665.84
2023-04-07T15:27:28.914Z,100663.84
2023-04-07T15:30:01.344Z,100663.52
2023-04-07T15:32:34.268Z,100671.05
2023-04-07T15:35:07.187Z,100680.08
2023-04-07T15:37:39.441Z,100680.35
2023-04-07T15:40:12.045Z,100679.70
2023-04-07T15:42:44.429Z,100679.83
2023-04-07T15:45:16.500Z,100679.00
2023-04-07T15:47:48.786Z,100680.79
2023-04-07T15:50:21.544Z,100685.88
2023-04-07T15:52:53.788Z,100687.50
2023-04-07T15:55:26.000Z,100682.80
2023-04-07T15:57:58.563Z,100693.02
2023-04-07T16:00:32.937Z,100702.33
2023-04-07T16:03:05.852Z,100696.73
2023-04-07T16:05:39.218Z,100700.64
2023-04-07T16:08:13.679Z,100712.41
2023-04-07T16:10:46.035Z,100714.53
2023-04-07T16:13:18.112Z,100708.73
2023-04-07T16:15:50.647Z,100723.21
2023-04-07T16:18:23.252Z,100715.70
2023-04-07T16:20:55.490Z,100729.23
2023-04-07T16:23:28.069Z,100736.70
2023-04-07T16:26:00.171Z,100733.52
2023-04-07T16:28:44.800Z,100732.16
2023-04-07T16:31:17.046Z,100739.52
2023-04-07T16:33:52.772Z,100732.83
2023-04-07T16:36:25.153Z,100741.91
2023-04-07T16:38:57.775Z,100739.70
2023-04-07T16:41:30.054Z,100753.23
2023-04-07T16:44:02.631Z,100743.13
2023-04-07T16:46:34.822Z,100759.17
2023-04-07T16:49:07.005Z,100755.11
2023-04-07T16:51:39.158Z,100758.80
2023-04-07T16:54:11.439Z,100758.12
2023-04-07T16:56:43.543Z,100762.58
2023-04-07T16:59:16.380Z,100759.16
2023-04-07T17:01:48.423Z,100761.97
2023-04-07T17:04:20.740Z,100764.83
2023-04-07T17:06:53.150Z,100767.73
2023-04-07T17:09:25.733Z,100768.80
2023-04-07T17:11:57.971Z,100771.70
2023-04-07T17:14:30.824Z,100775.42
2023-04-07T17:17:03.586Z,100772.98
2023-04-07T17:19:36.173Z,100774.87
2023-04-07T17:22:08.483Z,100782.86
2023-04-07T17:24:40.556Z,100786.53
2023-04-07T17:27:12.735Z,100785.76
2023-04-07T17:29:44.947Z,100789.42
2023-04-07T17:32:17.166Z,100790.34
2023-04-07T17:34:49.396Z,100789.55
2023-04-07T17:37:21.321Z,100796.72
2023-04-07T17:39:53.656Z,100794.19
2023-04-07T17:42:26.224Z,100795.27
2023-04-07T17:44:58.399Z,100802.34
2023-04-07T17:47:30.864Z,100799.81
2023-04-07T17:50:03.129Z,100799.14
2023-04-07T17:52:35.504Z,100802.77
2023-04-07T17:55:08.751Z,100801.14
2023-04-07T17:57:42.551Z,100803.02
2023-04-07T18:00:15.188Z,100804.01
2023-04-07T18:02:47.706Z,100823.34
2023-04-07T18:05:20.615Z,100811.23
2023-04-07T18:07:55.090Z,100808.70
2023-04-07T18:10:28.249Z,100815.80
2023-04-07T18:13:00.662Z,100824.61
2023-04-07T18:15:33.440Z,100820.36
2023-04-07T18:18:05.838Z,100821.24
2023-04-07T18:20:38.088Z,100823.97
2023-04-07T18:23:10.711Z,100824.96
2023-04-07T18:25:42.956Z,100831.03
2023-04-07T18:28:15.268Z,100825.99
2023-04-07T18:30:47.439Z,100833.02
2023-04-07T18:33:19.761Z,100829.64
2023-04-07T18:35:51.908Z,100834.95
2023-04-07T18:38:23.826Z,100842.88
2023-04-07T18:40:56.362Z,100833.47
2023-04-07T18:43:28.432Z,100830.92
2023-04-07T18:46:00.877Z,100836.20
2023-04-07T18:48:33.414Z,100832.86
2023-04-07T18:51:05.951Z,100837.25
2023-04-07T18:53:38.749Z,100834.75
2023-04-07T18:56:10.800Z,100834.83
2023-04-07T18:58:44.337Z,100840.09
2023-04-07T19:01:16.853Z,100834.97
2023-04-07T19:03:49.353Z,100837.70
2023-04-07T19:06:22.242Z,100846.48
2023-04-07T19:08:54.813Z,100846.59
2023-04-07T19:11:27.233Z,100841.40
2023-04-07T19:13:59.376Z,100844.05
2023-04-07T19:16:32.418Z,100841.47
2023-04-07T19:19:05.238Z,100851.16
2023-04-07T19:21:37.300Z,100845.16
2023-04-07T19:24:09.320Z,100839.94
2023-04-07T19:26:41.380Z,100843.49
2023-04-07T19:29:13.437Z,100841.81
2023-04-07T19:31:45.731Z,100835.78
2023-04-07T19:34:17.692Z,100846.25
2023-04-07T19:36:49.798Z,100848.05
2023-04-07T19:39:21.820Z,100844.53
2023-04-07T19:41:53.775Z,100841.95
2023-04-07T19:44:26.891Z,100842.89
2023-04-07T19:46:59.184Z,100845.51
2023-04-07T19:49:31.411Z,100843.77
2023-04-07T19:52:04.354Z,100842.12
2023-04-07T19:54:36.550Z,100850.00
2023-04-07T19:57:08.833Z,100847.42
2023-04-07T19:59:41.188Z,100847.48
2023-04-07T20:02:13.323Z,100850.13
2023-04-07T20:04:46.040Z,100842.45
2023-04-07T20:07:18.493Z,100842.56
2023-04-07T20:09:52.209Z,100848.75
2023-04-07T20:12:24.792Z,100847.98
2023-04-07T20:14:56.944Z,100851.50
2023-04-07T20:17:29.186Z,100855.02
2023-04-07T20:20:02.013Z,100855.95
2023-04-07T20:22:36.845Z,100859.53
2023-04-07T20:25:09.759Z,100857.88
2023-04-07T20:27:44.063Z,100854.52
2023-04-07T20:30:16.662Z,100859.88
2023-04-07T20:32:49.507Z,100864.23
2023-04-07T20:35:22.087Z,100863.48
2023-04-07T20:37:54.544Z,100858.25
2023-04-07T20:40:27.803Z,100861.80
2023-04-07T20:43:00.506Z,100861.80
2023-04-07T20:45:34.427Z,100871.41
2023-04-07T20:48:06.990Z,100868.83
2023-04-07T20:50:39.858Z,100862.77
2023-04-07T20:53:12.390Z,100867.17
2023-04-07T20:55:44.459Z,100867.27
2023-04-07T20:58:17.957Z,100867.35
2023-04-07T21:00:51.699Z,100864.80
2023-04-07T21:03:28.117Z,100880.49
2023-04-07T21:06:00.503Z,100869.27
2023-04-07T21:08:32.795Z,100869.41
2023-04-07T21:11:04.877Z,100875.59
2023-04-07T21:13:36.961Z,100872.19
2023-04-07T21:16:09.207Z,100876.58
2023-04-07T21:18:42.837Z,100880.08
2023-04-07T21:21:16.060Z,100875.70
2023-04-07T21:23:49.150Z,100870.48
2023-04-07T21:26:21.210Z,100874.91
2023-04-07T21:28:53.653Z,100876.66
2023-04-07T21:31:26.260Z,100872.36
2023-04-07T21:33:58.389Z,100868.94
2023-04-07T21:36:32.194Z,100875.95
2023-04-07T21:39:04.789Z,100875.16
2023-04-07T21:41:37.301Z,100873.48
2023-04-07T21:44:11.266Z,100873.48
2023-04-07T21:46:43.385Z,100869.12
2023-04-07T21:49:15.764Z,100877.03
2023-04-07T21:51:47.996Z,100871.84
2023-04-07T21:54:20.194Z,100871.06
2023-04-07T21:56:52.844Z,100878.88
2023-04-07T21:59:25.037Z,100874.53
2023-04-07T22:01:57.903Z,100870.27
2023-04-07T22:04:30.780Z,100871.21
2023-04-07T22:07:04.201Z,100881.75
2023-04-07T22:09:37.283Z,100879.19
2023-04-07T22:12:09.724Z,100876.66
2023-04-07T22:14:43.009Z,100874.05
2023-04-07T22:17:15.277Z,100878.50
2023-04-07T22:19:47.572Z,100876.78
2023-04-07T22:22:20.230Z,100881.13
2023-04-07T22:24:52.457Z,100868.17
2023-04-07T22:27:24.852Z,100873.41
2023-04-07T22:29:57.267Z,100874.33
2023-04-07T22:32:29.501Z,100877.01
2023-04-07T22:35:01.530Z,100875.34
2023-04-07T22:37:33.650Z,100869.31
2023-04-07T22:40:06.436Z,100880.61
2023-04-07T22:42:40.352Z,100878.02
2023-04-07T22:45:12.957Z,100870.25
2023-04-07T22:47:46.137Z,100867.67
2023-04-07T22:50:18.268Z,100871.22
2023-04-07T22:52:50.859Z,100871.31
2023-04-07T22:55:22.899Z,100877.44
2023-04-07T22:57:55.141Z,100875.77
2023-04-07T23:00:28.281Z,100874.09
2023-04-07T23:03:00.482Z,100873.26
2023-04-07T23:05:34.277Z,100868.91
2023-04-07T23:08:06.626Z,100868.06
2023-04-07T23:10:42.308Z,100873.28
2023-04-07T23:13:15.996Z,100875.88
2023-04-07T23:15:49.107Z,100872.39
2023-04-07T23:18:22.854Z,100873.31
2023-04-07T23:20:55.187Z,100869.02
2023-04-07T23:23:27.502Z,100869.05
2023-04-07T23:26:01.672Z,100872.58
2023-04-07T23:28:34.106Z,100869.12
2023-04-07T23:31:07.792Z,100869.15
2023-04-07T23:33:39.967Z,100870.01
2023-04-07T23:36:12.206Z,100868.28
2023-04-07T23:38:44.512Z,100872.69
2023-04-07T23:41:18.238Z,100869.25
2023-04-07T23:43:50.458Z,100865.83
2023-04-07T23:46:25.035Z,100864.97
2023-04-07T23:49:06.989Z,100865.86
2023-04-07T23:51:42.573Z,100858.09
2023-04-07T23:54:14.895Z,100869.42
2023-04-07T23:56:49.805Z,100860.78
2023-04-07T23:59:26.784Z,100867.73
